sensor_id;sensor_type;location;lat;lon;timestamp;pressure;altitude;pressure_sealevel;temperature;humidity
47670;BME280;33408;52.062;11.722;2023-04-28T00:01:11;101447.50;;;6.46;100.00
47670;BME280;33408;52.062;11.722;2023-04-28T00:03:38;101446.72;;;6.56;100.00
47670;BME280;33408;52.062;11.722;2023-04-28T00:06:04;101445.81;;;6.48;100.00
47670;BME280;33408;52.062;11.722;2023-04-28T00:08:31;101448.25;;;6.34;100.00
47670;BME280;33408;52.062;11.722;2023-04-28T00:10:58;101436.22;;;6.35;100.00
47670;BME280;33408;52.062;11.722;2023-04-28T00:13:26;101429.41;;;6.40;100.00
47670;BME280;33408;52.062;11.722;2023-04-28T00:15:53;101432.81;;;6.37;100.00
47670;BME280;33408;52.062;11.722;2023-04-28T00:18:19;101432.75;;;6.30;100.00
47670;BME280;33408;52.062;11.722;2023-04-28T00:20:46;101414.72;;;6.30;100.00
47670;BME280;33408;52.062;11.722;2023-04-28T00:23:13;101416.38;;;6.26;100.00
47670;BME280;33408;52.062;11.722;2023-04-28T00:25:39;101421.44;;;6.15;100.00
47670;BME280;33408;52.062;11.722;2023-04-28T00:28:06;101412.88;;;6.18;100.00
47670;BME280;33408;52.062;11.722;2023-04-28T00:30:34;101405.25;;;6.27;99.33
47670;BME280;33408;52.062;11.722;2023-04-28T00:33:00;101406.00;;;6.17;99.13
47670;BME280;33408;52.062;11.722;2023-04-28T00:35:27;101400.06;;;6.23;99.63
47670;BME280;33408;52.062;11.722;2023-04-28T00:37:53;101399.25;;;6.27;99.16
47670;BME280;33408;52.062;11.722;2023-04-28T00:40:20;101404.25;;;6.13;98.99
47670;BME280;33408;52.062;11.722;2023-04-28T00:42:46;101400.09;;;6.26;99.38
47670;BME280;33408;52.062;11.722;2023-04-28T00:45:13;101401.56;;;6.05;99.68
47670;BME280;33408;52.062;11.722;2023-04-28T00:47:41;101387.09;;;6.16;99.67
47670;BME280;33408;52.062;11.722;2023-04-28T00:50:09;101384.66;;;6.27;99.42
47670;BME280;33408;52.062;11.722;2023-04-28T00:52:36;101382.00;;;6.19;98.98
47670;BME280;33408;52.062;11.722;2023-04-28T00:55:04;101376.75;;;6.09;99.81
47670;BME280;33408;52.062;11.722;2023-04-28T00:57:31;101378.50;;;6.14;99.76
47670;BME280;33408;52.062;11.722;2023-04-28T00:59:57;101375.09;;;6.15;99.20
47670;BME280;33408;52.062;11.722;2023-04-28T01:02:25;101372.53;;;6.15;99.85
47670;BME280;33408;52.062;11.722;2023-04-28T01:04:55;101378.59;;;6.20;99.20
47670;BME280;33408;52.062;11.722;2023-04-28T01:07:22;101373.44;;;6.22;98.39
47670;BME280;33408;52.062;11.722;2023-04-28T01:09:48;101370.81;;;6.17;98.60
47670;BME280;33408;52.062;11.722;2023-04-28T01:12:15;101369.88;;;6.09;98.96
47670;BME280;33408;52.062;11.722;2023-04-28T01:14:42;101363.84;;;6.06;98.76
47670;BME280;33408;52.062;11.722;2023-04-28T01:17:09;101367.22;;;6.01;99.83
47670;BME280;33408;52.062;11.722;2023-04-28T01:19:36;101358.75;;;6.13;100.00
47670;BME280;33408;52.062;11.722;2023-04-28T01:22:04;101363.00;;;6.07;100.00
47670;BME280;33408;52.062;11.722;2023-04-28T01:24:32;101362.94;;;6.03;99.62
47670;BME280;33408;52.062;11.722;2023-04-28T01:26:58;101359.63;;;6.12;99.85
47670;BME280;33408;52.062;11.722;2023-04-28T01:29:25;101367.41;;;6.17;100.00
47670;BME280;33408;52.062;11.722;2023-04-28T01:31:52;101358.75;;;6.09;99.03
47670;BME280;33408;52.062;11.722;2023-04-28T01:34:18;101358.75;;;6.09;98.15
47670;BME280;33408;52.062;11.722;2023-04-28T01:36:45;101357.94;;;6.14;97.58
47670;BME280;33408;52.062;11.722;2023-04-28T01:39:11;101357.03;;;6.11;99.10
47670;BME280;33408;52.062;11.722;2023-04-28T01:41:40;101359.63;;;6.12;99.16
47670;BME280;33408;52.062;11.722;2023-04-28T01:44:07;101355.31;;;6.11;98.52
47670;BME280;33408;52.062;11.722;2023-04-28T01:46:34;101352.53;;;5.93;98.85
47670;BME280;33408;52.062;11.722;2023-04-28T01:49:00;101347.38;;;5.91;99.33
47670;BME280;33408;52.062;11.722;2023-04-28T01:51:27;101353.47;;;5.98;99.18
47670;BME280;33408;52.062;11.722;2023-04-28T01:53:53;101346.66;;;6.03;98.40
47670;BME280;33408;52.062;11.722;2023-04-28T01:56:20;101344.91;;;6.00;99.34
47670;BME280;33408;52.062;11.722;2023-04-28T01:58:48;101336.25;;;5.95;99.71
47670;BME280;33408;52.062;11.722;2023-04-28T02:01:14;101334.44;;;5.85;100.00
47670;BME280;33408;52.062;11.722;2023-04-28T02:03:41;101333.59;;;5.89;100.00
47670;BME280;33408;52.062;11.722;2023-04-28T02:06:08;101330.97;;;5.80;100.00
47670;BME280;33408;52.062;11.722;2023-04-28T02:08:34;101325.00;;;5.85;100.00
47670;BME280;33408;52.062;11.722;2023-04-28T02:11:01;101338.66;;;5.78;100.00
47670;BME280;33408;52.062;11.722;2023-04-28T02:13:28;101330.31;;;5.98;100.00
47670;BME280;33408;52.062;11.722;2023-04-28T02:15:59;101338.13;;;6.06;100.00
47670;BME280;33408;52.062;11.722;2023-04-28T02:18:25;101323.19;;;5.77;100.00
47670;BME280;33408;52.062;11.722;2023-04-28T02:20:52;101320.56;;;5.71;100.00
47670;BME280;33408;52.062;11.722;2023-04-28T02:23:18;101320.84;;;5.97;100.00
47670;BME280;33408;52.062;11.722;2023-04-28T02:25:45;101321.34;;;5.66;100.00
47670;BME280;33408;52.062;11.722;2023-04-28T02:28:12;101318.94;;;5.79;100.00
47670;BME280;33408;52.062;11.722;2023-04-28T02:30:38;101319.78;;;5.79;100.00
47670;BME280;33408;52.062;11.722;2023-04-28T02:33:06;101322.41;;;5.84;100.00
47670;BME280;33408;52.062;11.722;2023-04-28T02:35:33;101320.78;;;5.92;100.00
47670;BME280;33408;52.062;11.722;2023-04-28T02:38:00;101317.19;;;5.75;100.00
47670;BME280;33408;52.062;11.722;2023-04-28T02:40:26;101320.47;;;5.64;100.00
47670;BME280;33408;52.062;11.722;2023-04-28T02:42:53;101315.28;;;5.60;100.00
47670;BME280;33408;52.062;11.722;2023-04-28T02:45:19;101313.53;;;5.54;100.00
47670;BME280;33408;52.062;11.722;2023-04-28T02:47:46;101305.72;;;5.46;100.00
47670;BME280;33408;52.062;11.722;2023-04-28T02:50:14;101307.47;;;5.51;100.00
47670;BME280;33408;52.062;11.722;2023-04-28T02:52:40;101286.13;;;5.58;100.00
47670;BME280;33408;52.062;11.722;2023-04-28T02:55:07;101299.06;;;5.64;100.00
47670;BME280;33408;52.062;11.722;2023-04-28T02:57:34;101294.59;;;5.49;100.00
47670;BME280;33408;52.062;11.722;2023-04-28T03:00:01;101290.38;;;5.56;100.00
47670;BME280;33408;52.062;11.722;2023-04-28T03:02:27;101290.44;;;5.60;100.00
47670;BME280;33408;52.062;11.722;2023-04-28T03:04:54;101291.19;;;5.52;100.00
47670;BME280;33408;52.062;11.722;2023-04-28T03:07:22;101280.13;;;5.57;100.00
47670;BME280;33408;52.062;11.722;2023-04-28T03:09:48;101282.59;;;5.50;100.00
47670;BME280;33408;52.062;11.722;2023-04-28T03:12:15;101274.84;;;5.46;100.00
47670;BME280;33408;52.062;11.722;2023-04-28T03:14:41;101271.50;;;5.54;100.00
47670;BME280;33408;52.062;11.722;2023-04-28T03:17:08;101264.63;;;5.51;100.00
47670;BME280;33408;52.062;11.722;2023-04-28T03:19:38;101266.28;;;5.44;100.00
47670;BME280;33408;52.062;11.722;2023-04-28T03:22:05;101269.81;;;5.54;100.00
47670;BME280;33408;52.062;11.722;2023-04-28T03:24:32;101263.75;;;5.52;100.00
47670;BME280;33408;52.062;11.722;2023-04-28T03:26:59;101262.81;;;5.45;100.00
47670;BME280;33408;52.062;11.722;2023-04-28T03:29:27;101255.06;;;5.41;100.00
47670;BME280;33408;52.062;11.722;2023-04-28T03:31:54;101253.38;;;5.41;100.00
47670;BME280;33408;52.062;11.722;2023-04-28T03:34:21;101238.88;;;5.50;100.00
47670;BME280;33408;52.062;11.722;2023-04-28T03:36:47;101244.06;;;5.51;100.00
47670;BME280;33408;52.062;11.722;2023-04-28T03:39:14;101249.09;;;5.43;100.00
47670;BME280;33408;52.062;11.722;2023-04-28T03:41:42;101235.38;;;5.41;100.00
47670;BME280;33408;52.062;11.722;2023-04-28T03:44:08;101226.72;;;5.33;100.00
47670;BME280;33408;52.062;11.722;2023-04-28T03:46:35;101233.84;;;5.57;100.00
47670;BME280;33408;52.062;11.722;2023-04-28T03:49:02;101223.47;;;5.50;100.00
47670;BME280;33408;52.062;11.722;2023-04-28T03:51:28;101229.47;;;5.50;100.00
47670;BME280;33408;52.062;11.722;2023-04-28T03:53:57;101225.34;;;5.68;100.00
47670;BME280;33408;52.062;11.722;2023-04-28T03:56:23;101228.84;;;5.74;100.00
47670;BME280;33408;52.062;11.722;2023-04-28T03:58:51;101224.63;;;5.84;100.00
47670;BME280;33408;52.062;11.722;2023-04-28T04:01:18;101221.13;;;5.76;100.00
47670;BME280;33408;52.062;11.722;2023-04-28T04:03:44;101226.28;;;5.76;100.00
47670;BME280;33408;52.062;11.722;2023-04-28T04:06:11;101218.59;;;5.80;100.00
47670;BME280;33408;52.062;11.722;2023-04-28T04:08:39;101218.53;;;5.74;100.00
47670;BME280;33408;52.062;11.722;2023-04-28T04:11:06;101210.75;;;5.66;100.00
47670;BME280;33408;52.062;11.722;2023-04-28T04:13:32;101216.88;;;5.79;100.00
47670;BME280;33408;52.062;11.722;2023-04-28T04:16:00;101211.59;;;5.64;100.00
47670;BME280;33408;52.062;11.722;2023-04-28T04:18:27;101216.13;;;5.90;100.00
47670;BME280;33408;52.062;11.722;2023-04-28T04:20:54;101210.88;;;5.77;100.00
47670;BME280;33408;52.062;11.722;2023-04-28T04:23:21;101206.53;;;5.70;100.00
47670;BME280;33408;52.062;11.722;2023-04-28T04:25:48;101202.16;;;5.63;100.00
47670;BME280;33408;52.062;11.722;2023-04-28T04:28:15;101203.97;;;5.72;100.00
47670;BME280;33408;52.062;11.722;2023-04-28T04:30:41;101201.38;;;5.69;100.00
47670;BME280;33408;52.062;11.722;2023-04-28T04:33:10;101201.31;;;5.64;100.00
47670;BME280;33408;52.062;11.722;2023-04-28T04:35:37;101198.56;;;5.47;100.00
47670;BME280;33408;52.062;11.722;2023-04-28T04:38:03;101195.03;;;5.36;100.00
47670;BME280;33408;52.062;11.722;2023-04-28T04:40:31;101197.69;;;5.45;100.00
47670;BME280;33408;52.062;11.722;2023-04-28T04:42:58;101198.63;;;5.52;100.00
47670;BME280;33408;52.062;11.722;2023-04-28T04:45:25;101198.63;;;5.52;100.00
47670;BME280;33408;52.062;11.722;2023-04-28T04:47:51;101194.69;;;5.88;100.00
47670;BME280;33408;52.062;11.722;2023-04-28T04:50:19;101197.97;;;5.74;100.00
47670;BME280;33408;52.062;11.722;2023-04-28T04:52:46;101191.94;;;5.71;100.00
47670;BME280;33408;52.062;11.722;2023-04-28T04:55:13;101196.31;;;5.81;100.00
47670;BME280;33408;52.062;11.722;2023-04-28T04:57:39;101193.69;;;5.73;100.00
47670;BME280;33408;52.062;11.722;2023-04-28T05:00:07;101190.25;;;5.76;100.00
47670;BME280;33408;52.062;11.722;2023-04-28T05:02:34;101180.13;;;5.94;100.00
47670;BME280;33408;52.062;11.722;2023-04-28T05:05:03;101190.50;;;6.00;100.00
47670;BME280;33408;52.062;11.722;2023-04-28T05:07:32;101184.63;;;6.17;100.00
47670;BME280;33408;52.062;11.722;2023-04-28T05:09:59;101176.09;;;6.26;100.00
47670;BME280;33408;52.062;11.722;2023-04-28T05:12:25;101180.31;;;6.16;100.00
47670;BME280;33408;52.062;11.722;2023-04-28T05:14:52;101178.63;;;6.21;100.00
47670;BME280;33408;52.062;11.722;2023-04-28T05:17:19;101181.75;;;7.64;100.00
47670;BME280;33408;52.062;11.722;2023-04-28T05:19:45;101178.28;;;8.52;99.12
47670;BME280;33408;52.062;11.722;2023-04-28T05:22:12;101168.59;;;9.05;93.49
47670;BME280;33408;52.062;11.722;2023-04-28T05:24:40;101166.16;;;8.68;90.07
47670;BME280;33408;52.062;11.722;2023-04-28T05:27:06;101165.03;;;9.24;89.38
47670;BME280;33408;52.062;11.722;2023-04-28T05:29:33;101171.50;;;9.84;86.20
47670;BME280;33408;52.062;11.722;2023-04-28T05:31:59;101171.22;;;10.16;82.89
47670;BME280;33408;52.062;11.722;2023-04-28T05:34:26;101166.88;;;10.17;82.13
47670;BME280;33408;52.062;11.722;2023-04-28T05:36:53;101162.13;;;10.61;80.82
47670;BME280;33408;52.062;11.722;2023-04-28T05:39:19;101158.78;;;10.49;81.32
47670;BME280;33408;52.062;11.722;2023-04-28T05:41:47;101157.28;;;9.23;86.11
47670;BME280;33408;52.062;11.722;2023-04-28T05:44:14;101159.25;;;8.68;88.90
47670;BME280;33408;52.062;11.722;2023-04-28T05:46:40;101160.13;;;8.58;92.38
47670;BME280;33408;52.062;11.722;2023-04-28T05:49:07;101161.91;;;8.40;94.18
47670;BME280;33408;52.062;11.722;2023-04-28T05:51:34;101157.63;;;8.26;95.59
47670;BME280;33408;52.062;11.722;2023-04-28T05:54:00;101157.63;;;8.22;95.51
47670;BME280;33408;52.062;11.722;2023-04-28T05:56:27;101162.78;;;8.22;95.97
47670;BME280;33408;52.062;11.722;2023-04-28T05:58:55;101148.84;;;8.84;94.47
47670;BME280;33408;52.062;11.722;2023-04-28T06:01:22;101147.69;;;9.39;93.08
47670;BME280;33408;52.062;11.722;2023-04-28T06:03:49;101140.63;;;9.56;89.30
47670;BME280;33408;52.062;11.722;2023-04-28T06:06:17;101139.78;;;10.50;85.81
47670;BME280;33408;52.062;11.722;2023-04-28T06:08:43;101136.16;;;10.64;82.25
47670;BME280;33408;52.062;11.722;2023-04-28T06:11:10;101131.81;;;10.66;82.98
47670;BME280;33408;52.062;11.722;2023-04-28T06:13:37;101131.09;;;10.54;81.73
47670;BME280;33408;52.062;11.722;2023-04-28T06:16:05;101129.16;;;10.72;79.90
47670;BME280;33408;52.062;11.722;2023-04-28T06:18:32;101129.97;;;10.77;80.02
47670;BME280;33408;52.062;11.722;2023-04-28T06:20:59;101133.38;;;10.81;79.75
47670;BME280;33408;52.062;11.722;2023-04-28T06:23:25;101129.34;;;11.20;77.15
47670;BME280;33408;52.062;11.722;2023-04-28T06:25:52;101126.47;;;10.80;77.28
47670;BME280;33408;52.062;11.722;2023-04-28T06:28:19;101119.47;;;10.85;77.84
47670;BME280;33408;52.062;11.722;2023-04-28T06:30:45;101113.97;;;11.08;79.00
47670;BME280;33408;52.062;11.722;2023-04-28T06:33:13;101117.19;;;10.60;78.12
47670;BME280;33408;52.062;11.722;2023-04-28T06:35:40;101117.94;;;10.71;79.09
47670;BME280;33408;52.062;11.722;2023-04-28T06:38:06;101118.75;;;10.73;78.73
47670;BME280;33408;52.062;11.722;2023-04-28T06:40:33;101109.81;;;10.96;78.64
47670;BME280;33408;52.062;11.722;2023-04-28T06:43:00;101114.91;;;10.37;77.69
47670;BME280;33408;52.062;11.722;2023-04-28T06:45:26;101113.50;;;10.78;80.41
47670;BME280;33408;52.062;11.722;2023-04-28T06:47:53;101105.63;;;10.86;79.01
47670;BME280;33408;52.062;11.722;2023-04-28T06:50:22;101105.50;;;11.53;78.77
47670;BME280;33408;52.062;11.722;2023-04-28T06:52:49;101108.72;;;11.14;79.19
47670;BME280;33408;52.062;11.722;2023-04-28T06:55:16;101106.59;;;11.38;78.34
47670;BME280;33408;52.062;11.722;2023-04-28T06:57:43;101101.66;;;11.24;78.13
47670;BME280;33408;52.062;11.722;2023-04-28T07:00:10;101101.06;;;11.03;78.52
47670;BME280;33408;52.062;11.722;2023-04-28T07:02:37;101100.13;;;11.09;79.73
47670;BME280;33408;52.062;11.722;2023-04-28T07:05:04;101093.03;;;11.20;78.86
47670;BME280;33408;52.062;11.722;2023-04-28T07:07:32;101081.22;;;10.99;76.31
47670;BME280;33408;52.062;11.722;2023-04-28T07:09:59;101080.94;;;11.21;77.46
47670;BME280;33408;52.062;11.722;2023-04-28T07:12:26;101084.75;;;11.51;78.52
47670;BME280;33408;52.062;11.722;2023-04-28T07:14:53;101081.38;;;11.46;75.95
47670;BME280;33408;52.062;11.722;2023-04-28T07:17:20;101081.16;;;11.60;76.96
47670;BME280;33408;52.062;11.722;2023-04-28T07:19:46;101071.03;;;12.38;75.26
47670;BME280;33408;52.062;11.722;2023-04-28T07:22:14;101060.19;;;12.19;72.77
47670;BME280;33408;52.062;11.722;2023-04-28T07:24:42;101057.75;;;12.11;72.57
47670;BME280;33408;52.062;11.722;2023-04-28T07:27:09;101055.34;;;12.00;71.86
47670;BME280;33408;52.062;11.722;2023-04-28T07:29:36;101048.59;;;12.35;71.70
47670;BME280;33408;52.062;11.722;2023-04-28T07:32:03;101052.94;;;11.88;70.72
47670;BME280;33408;52.062;11.722;2023-04-28T07:34:32;101041.25;;;12.12;71.35
47670;BME280;33408;52.062;11.722;2023-04-28T07:36:59;101047.50;;;12.46;71.13
47670;BME280;33408;52.062;11.722;2023-04-28T07:39:25;101048.41;;;12.84;71.11
47670;BME280;33408;52.062;11.722;2023-04-28T07:41:53;101039.91;;;12.36;69.90
47670;BME280;33408;52.062;11.722;2023-04-28T07:44:22;101047.63;;;12.39;70.86
47670;BME280;33408;52.062;11.722;2023-04-28T07:46:48;101045.44;;;12.99;71.15
47670;BME280;33408;52.062;11.722;2023-04-28T07:49:15;101039.41;;;12.97;71.83
47670;BME280;33408;52.062;11.722;2023-04-28T07:51:42;101037.53;;;12.66;69.04
47670;BME280;33408;52.062;11.722;2023-04-28T07:54:08;101034.78;;;13.10;67.99
47670;BME280;33408;52.062;11.722;2023-04-28T07:56:35;101035.94;;;12.61;67.60
47670;BME280;33408;52.062;11.722;2023-04-28T07:59:03;101025.91;;;12.81;68.56
47670;BME280;33408;52.062;11.722;2023-04-28T08:01:29;101026.47;;;12.94;67.26
47670;BME280;33408;52.062;11.722;2023-04-28T08:03:56;101029.31;;;12.85;66.84
47670;BME280;33408;52.062;11.722;2023-04-28T08:06:23;101024.94;;;12.87;66.08
47670;BME280;33408;52.062;11.722;2023-04-28T08:08:49;101019.13;;;13.11;65.72
47670;BME280;33408;52.062;11.722;2023-04-28T08:11:16;101018.94;;;13.19;64.73
47670;BME280;33408;52.062;11.722;2023-04-28T08:13:42;101016.88;;;13.34;66.39
47670;BME280;33408;52.062;11.722;2023-04-28T08:16:10;101019.63;;;13.26;65.45
47670;BME280;33408;52.062;11.722;2023-04-28T08:18:37;101015.63;;;13.12;64.53
47670;BME280;33408;52.062;11.722;2023-04-28T08:21:04;101019.41;;;12.99;64.33
47670;BME280;33408;52.062;11.722;2023-04-28T08:23:30;101016.56;;;13.10;64.38
47670;BME280;33408;52.062;11.722;2023-04-28T08:25:57;101011.00;;;12.88;63.44
47670;BME280;33408;52.062;11.722;2023-04-28T08:28:23;101011.47;;;13.05;63.92
47670;BME280;33408;52.062;11.722;2023-04-28T08:30:50;101005.66;;;12.94;64.92
47670;BME280;33408;52.062;11.722;2023-04-28T08:33:19;101018.66;;;12.94;64.83
47670;BME280;33408;52.062;11.722;2023-04-28T08:35:45;101017.69;;;13.00;66.54
47670;BME280;33408;52.062;11.722;2023-04-28T08:38:12;101025.28;;;13.09;66.83
47670;BME280;33408;52.062;11.722;2023-04-28T08:40:40;101030.44;;;12.73;65.74
47670;BME280;33408;52.062;11.722;2023-04-28T08:43:07;101025.84;;;12.84;66.08
47670;BME280;33408;52.062;11.722;2023-04-28T08:45:39;101022.34;;;12.85;67.09
47670;BME280;33408;52.062;11.722;2023-04-28T08:48:16;101021.19;;;12.59;68.80
47670;BME280;33408;52.062;11.722;2023-04-28T08:50:48;101016.91;;;12.96;68.67
47670;BME280;33408;52.062;11.722;2023-04-28T08:53:21;101018.25;;;12.75;68.53
47670;BME280;33408;52.062;11.722;2023-04-28T08:55:50;101016.66;;;13.05;69.23
47670;BME280;33408;52.062;11.722;2023-04-28T08:58:18;101013.78;;;13.18;70.82
47670;BME280;33408;52.062;11.722;2023-04-28T09:00:44;101008.22;;;13.33;69.03
47670;BME280;33408;52.062;11.722;2023-04-28T09:03:11;101013.31;;;13.36;67.99
47670;BME280;33408;52.062;11.722;2023-04-28T09:05:37;101008.97;;;13.38;68.47
47670;BME280;33408;52.062;11.722;2023-04-28T09:08:05;101010.66;;;13.39;68.06
47670;BME280;33408;52.062;11.722;2023-04-28T09:10:32;101001.59;;;13.54;66.64
47670;BME280;33408;52.062;11.722;2023-04-28T09:12:59;101004.91;;;13.61;67.82
47670;BME280;33408;52.062;11.722;2023-04-28T09:15:29;101003.28;;;13.88;67.81
47670;BME280;33408;52.062;11.722;2023-04-28T09:17:56;101000.78;;;13.85;67.94
47670;BME280;33408;52.062;11.722;2023-04-28T09:20:24;101000.53;;;13.94;66.36
47670;BME280;33408;52.062;11.722;2023-04-28T09:22:53;100996.53;;;14.12;67.61
47670;BME280;33408;52.062;11.722;2023-04-28T09:25:22;100983.94;;;14.27;67.57
47670;BME280;33408;52.062;11.722;2023-04-28T09:27:51;100992.69;;;13.94;67.97
47670;BME280;33408;52.062;11.722;2023-04-28T09:30:17;100999.03;;;14.15;68.76
47670;BME280;33408;52.062;11.722;2023-04-28T09:32:44;100993.66;;;14.50;67.56
47670;BME280;33408;52.062;11.722;2023-04-28T09:35:11;100992.31;;;14.07;65.08
47670;BME280;33408;52.062;11.722;2023-04-28T09:37:38;100977.97;;;14.21;66.55
47670;BME280;33408;52.062;11.722;2023-04-28T09:40:09;100985.41;;;14.65;66.70
47670;BME280;33408;52.062;11.722;2023-04-28T09:42:39;100978.25;;;14.42;66.41
47670;BME280;33408;52.062;11.722;2023-04-28T09:45:07;100978.63;;;14.30;66.13
47670;BME280;33408;52.062;11.722;2023-04-28T09:47:36;100976.91;;;14.29;65.01
47670;BME280;33408;52.062;11.722;2023-04-28T09:50:03;100969.84;;;14.62;65.49
47670;BME280;33408;52.062;11.722;2023-04-28T09:52:32;100968.41;;;14.50;68.88
47670;BME280;33408;52.062;11.722;2023-04-28T09:55:01;100962.59;;;14.14;68.61
47670;BME280;33408;52.062;11.722;2023-04-28T09:57:29;100965.97;;;14.17;69.39
47670;BME280;33408;52.062;11.722;2023-04-28T09:59:58;100957.81;;;13.98;70.06
47670;BME280;33408;52.062;11.722;2023-04-28T10:02:26;100959.44;;;14.02;68.88
47670;BME280;33408;52.062;11.722;2023-04-28T10:04:56;100954.19;;;14.32;69.62
47670;BME280;33408;52.062;11.722;2023-04-28T10:07:23;100951.59;;;14.04;68.43
47670;BME280;33408;52.062;11.722;2023-04-28T10:09:50;100957.03;;;14.25;66.62
47670;BME280;33408;52.062;11.722;2023-04-28T10:12:17;100956.63;;;14.68;67.76
47670;BME280;33408;52.062;11.722;2023-04-28T10:14:43;100956.03;;;14.57;66.27
47670;BME280;33408;52.062;11.722;2023-04-28T10:17:12;100957.94;;;14.52;66.05
47670;BME280;33408;52.062;11.722;2023-04-28T10:19:39;100952.66;;;14.83;66.41
47670;BME280;33408;52.062;11.722;2023-04-28T10:22:19;100956.28;;;14.77;65.73
47670;BME280;33408;52.062;11.722;2023-04-28T10:25:07;100951.13;;;14.76;68.57
47670;BME280;33408;52.062;11.722;2023-04-28T10:27:40;100951.50;;;14.35;70.97
47670;BME280;33408;52.062;11.722;2023-04-28T10:30:11;100948.13;;;14.32;69.45
47670;BME280;33408;52.062;11.722;2023-04-28T10:32:40;100946.47;;;14.29;70.60
47670;BME280;33408;52.062;11.722;2023-04-28T10:35:41;100944.25;;;14.17;73.18
47670;BME280;33408;52.062;11.722;2023-04-28T10:38:10;100930.78;;;14.02;72.87
47670;BME280;33408;52.062;11.722;2023-04-28T10:40:38;100929.91;;;14.02;74.10
47670;BME280;33408;52.062;11.722;2023-04-28T10:43:06;100933.59;;;13.95;75.13
47670;BME280;33408;52.062;11.722;2023-04-28T10:45:58;100921.63;;;13.88;74.94
47670;BME280;33408;52.062;11.722;2023-04-28T10:48:53;100915.78;;;13.79;74.92
47670;BME280;33408;52.062;11.722;2023-04-28T10:51:28;100913.00;;;13.85;75.12
47670;BME280;33408;52.062;11.722;2023-04-28T10:54:09;100913.72;;;13.91;75.72
47670;BME280;33408;52.062;11.722;2023-04-28T10:56:35;100915.53;;;14.18;75.93
47670;BME280;33408;52.062;11.722;2023-04-28T10:59:25;100913.56;;;13.97;77.24
47670;BME280;33408;52.062;11.722;2023-04-28T11:01:52;100901.84;;;13.82;76.68
47670;BME280;33408;52.062;11.722;2023-04-28T11:04:20;100908.97;;;14.05;77.52
47670;BME280;33408;52.062;11.722;2023-04-28T11:07:08;100910.81;;;14.01;78.22
47670;BME280;33408;52.062;11.722;2023-04-28T11:09:47;100912.22;;;14.12;77.85
47670;BME280;33408;52.062;11.722;2023-04-28T11:12:14;100918.34;;;14.39;81.65
47670;BME280;33408;52.062;11.722;2023-04-28T11:14:41;100919.63;;;14.26;85.29
47670;BME280;33408;52.062;11.722;2023-04-28T11:17:09;100909.88;;;14.32;86.34
47670;BME280;33408;52.062;11.722;2023-04-28T11:19:40;100915.66;;;14.14;87.74
47670;BME280;33408;52.062;11.722;2023-04-28T11:22:13;100915.94;;;14.33;89.23
47670;BME280;33408;52.062;11.722;2023-04-28T11:24:40;100915.41;;;14.21;91.90
47670;BME280;33408;52.062;11.722;2023-04-28T11:27:07;100918.44;;;14.36;90.95
47670;BME280;33408;52.062;11.722;2023-04-28T11:29:35;100919.47;;;14.32;90.05
47670;BME280;33408;52.062;11.722;2023-04-28T11:32:02;100907.13;;;14.37;89.59
47670;BME280;33408;52.062;11.722;2023-04-28T11:34:29;100910.56;;;14.37;86.35
47670;BME280;33408;52.062;11.722;2023-04-28T11:36:58;100906.28;;;14.36;84.82
47670;BME280;33408;52.062;11.722;2023-04-28T11:39:26;100900.44;;;14.28;84.23
47670;BME280;33408;52.062;11.722;2023-04-28T11:41:58;100896.50;;;14.43;84.05
47670;BME280;33408;52.062;11.722;2023-04-28T11:44:27;100896.41;;;14.46;84.98
47670;BME280;33408;52.062;11.722;2023-04-28T11:46:55;100896.41;;;14.46;84.79
47670;BME280;33408;52.062;11.722;2023-04-28T11:49:25;100894.31;;;14.57;84.34
47670;BME280;33408;52.062;11.722;2023-04-28T11:51:52;100900.16;;;14.92;87.00
47670;BME280;33408;52.062;11.722;2023-04-28T11:54:21;100900.69;;;14.47;88.11
47670;BME280;33408;52.062;11.722;2023-04-28T11:56:49;100895.66;;;14.43;86.94
47670;BME280;33408;52.062;11.722;2023-04-28T11:59:16;100885.03;;;14.47;85.50
47670;BME280;33408;52.062;11.722;2023-04-28T12:01:46;100889.84;;;14.33;86.20
47670;BME280;33408;52.062;11.722;2023-04-28T12:04:13;100891.16;;;14.19;85.57
47670;BME280;33408;52.062;11.722;2023-04-28T12:06:40;100880.44;;;14.29;85.48
47670;BME280;33408;52.062;11.722;2023-04-28T12:09:17;100883.88;;;14.57;86.47
47670;BME280;33408;52.062;11.722;2023-04-28T12:11:54;100878.84;;;14.51;86.76
47670;BME280;33408;52.062;11.722;2023-04-28T12:14:22;100876.88;;;14.58;86.20
47670;BME280;33408;52.062;11.722;2023-04-28T12:16:48;100873.44;;;15.09;87.55
47670;BME280;33408;52.062;11.722;2023-04-28T12:19:16;100885.59;;;14.57;94.40
47670;BME280;33408;52.062;11.722;2023-04-28T12:21:57;100886.09;;;14.70;100.00
47670;BME280;33408;52.062;11.722;2023-04-28T12:24:24;100878.03;;;14.49;100.00
47670;BME280;33408;52.062;11.722;2023-04-28T12:26:52;100878.44;;;14.37;100.00
47670;BME280;33408;52.062;11.722;2023-04-28T12:29:37;100877.22;;;14.47;100.00
47670;BME280;33408;52.062;11.722;2023-04-28T12:32:06;100884.81;;;14.28;100.00
47670;BME280;33408;52.062;11.722;2023-04-28T12:34:33;100880.91;;;14.13;100.00
47670;BME280;33408;52.062;11.722;2023-04-28T12:37:00;100878.66;;;14.02;100.00
47670;BME280;33408;52.062;11.722;2023-04-28T12:39:30;100873.56;;;13.98;100.00
47670;BME280;33408;52.062;11.722;2023-04-28T12:41:56;100875.81;;;13.80;100.00
47670;BME280;33408;52.062;11.722;2023-04-28T12:44:23;100872.81;;;13.94;100.00